createdAt,value
2018-03-19T00:00:02.442Z,42.20
2018-03-19T00:02:31.695Z,42.10
2018-03-19T00:05:01.508Z,42.30
2018-03-19T00:07:31.936Z,42.30
2018-03-19T00:10:01.715Z,42.40
2018-03-19T00:12:31.523Z,42.40
2018-03-19T00:15:01.341Z,42.70
2018-03-19T00:17:31.145Z,43.10
2018-03-19T00:20:00.960Z,42.90
2018-03-19T00:22:30.840Z,43.00
2018-03-19T00:25:00.381Z,43.20
2018-03-19T00:27:30.173Z,43.30
2018-03-19T00:30:00.005Z,43.60
2018-03-19T00:32:29.789Z,43.70
2018-03-19T00:35:00.442Z,44.00
2018-03-19T00:37:30.254Z,44.00
2018-03-19T00:40:00.074Z,44.00
2018-03-19T00:42:29.643Z,43.90
2018-03-19T00:45:00.262Z,44.50
2018-03-19T00:47:30.032Z,44.50
2018-03-19T00:49:59.878Z,44.50
2018-03-19T00:52:29.722Z,44.40
2018-03-19T00:55:00.270Z,44.80
2018-03-19T00:57:29.900Z,44.80
2018-03-19T00:59:59.574Z,44.90
2018-03-19T01:02:29.415Z,45.00
2018-03-19T01:04:59.187Z,45.20
2018-03-19T01:07:29.769Z,45.70
2018-03-19T01:09:59.653Z,45.60
2018-03-19T01:12:29.570Z,45.80
2018-03-19T01:14:59.099Z,46.00
2018-03-19T01:17:28.912Z,46.10
2018-03-19T01:19:58.753Z,46.20
2018-03-19T01:22:28.562Z,46.50
2018-03-19T01:24:58.385Z,46.70
2018-03-19T01:27:28.191Z,47.20
2018-03-19T01:29:57.972Z,47.20
2018-03-19T01:32:27.787Z,47.20
2018-03-19T01:34:57.286Z,47.60
2018-03-19T01:37:27.113Z,47.80
2018-03-19T01:39:56.923Z,48.00
2018-03-19T01:42:26.725Z,48.30
2018-03-19T01:44:56.225Z,48.30
2018-03-19T01:47:26.031Z,48.50
2018-03-19T01:49:55.820Z,49.10
2018-03-19T01:52:36.913Z,49.10
2018-03-19T01:55:06.405Z,49.30
2018-03-19T01:57:36.957Z,49.60
2018-03-19T02:00:06.742Z,49.60
2018-03-19T02:02:36.276Z,50.00
2018-03-19T02:05:06.118Z,50.00
2018-03-19T02:07:35.884Z,50.00
2018-03-19T02:10:06.126Z,50.20
2018-03-19T02:12:35.922Z,50.20
2018-03-19T02:15:05.081Z,50.40
2018-03-19T02:17:34.875Z,50.70
2018-03-19T02:20:04.360Z,50.70
2018-03-19T02:22:33.575Z,50.90
2018-03-19T02:25:03.375Z,50.80
2018-03-19T02:27:33.250Z,51.00
2018-03-19T02:30:03.851Z,51.30
2018-03-19T02:32:34.832Z,51.70
2018-03-19T02:35:04.647Z,51.70
2018-03-19T02:37:35.267Z,52.10
2018-03-19T02:40:05.826Z,51.90
2018-03-19T02:42:35.346Z,51.90
2018-03-19T02:45:05.159Z,52.40
2018-03-19T02:47:34.918Z,52.50
2018-03-19T02:50:05.182Z,52.90
2018-03-19T02:52:34.992Z,52.90
2018-03-19T02:55:04.772Z,53.00
2018-03-19T02:57:35.350Z,53.00
2018-03-19T03:00:04.511Z,53.00
2018-03-19T03:02:35.085Z,53.20
2018-03-19T03:05:04.251Z,53.20
2018-03-19T03:07:34.750Z,53.30
2018-03-19T03:10:04.233Z,53.50
2018-03-19T03:12:34.029Z,53.60
2018-03-19T03:15:03.588Z,53.70
2018-03-19T03:17:34.130Z,54.10
2018-03-19T03:20:03.616Z,54.10
2018-03-19T03:22:34.177Z,54.10
2018-03-19T03:25:04.069Z,54.10
2018-03-19T03:27:34.724Z,54.20
2018-03-19T03:30:04.218Z,54.40
2018-03-19T03:32:34.001Z,54.50
2018-03-19T03:35:03.894Z,54.70
2018-03-19T03:37:34.247Z,54.70
2018-03-19T03:40:04.169Z,55.10
2018-03-19T03:42:34.720Z,55.40
2018-03-19T03:45:04.197Z,55.40
2018-03-19T03:47:34.780Z,57.30
2018-03-19T03:50:03.950Z,57.30
2018-03-19T03:52:33.508Z,56.00
2018-03-19T03:55:03.306Z,55.70
2018-03-19T03:57:33.117Z,56.10
2018-03-19T04:00:02.939Z,56.50
2018-03-19T04:02:32.781Z,56.90
2018-03-19T04:05:02.578Z,56.60
2018-03-19T04:07:32.665Z,56.90
2018-03-19T04:10:02.528Z,57.00
2018-03-19T04:12:32.489Z,57.40
2018-03-19T04:15:02.311Z,57.10
2018-03-19T04:17:32.539Z,57.50
2018-03-19T04:20:02.221Z,57.50
2018-03-19T04:22:32.037Z,57.40
2018-03-19T04:25:01.825Z,57.90
2018-03-19T04:27:32.361Z,58.30
2018-03-19T04:30:02.320Z,58.20
2018-03-19T04:32:32.091Z,58.20
2018-03-19T04:35:02.676Z,59.30
2018-03-19T04:37:33.033Z,59.30
2018-03-19T04:40:03.285Z,59.80
2018-03-19T04:42:33.146Z,59.80
2018-03-19T04:45:03.709Z,60.00
2018-03-19T04:47:34.280Z,60.20
2018-03-19T04:50:03.736Z,60.20
2018-03-19T04:52:34.485Z,60.60
2018-03-19T04:55:05.034Z,60.60
2018-03-19T04:57:34.828Z,60.50
2018-03-19T05:00:05.053Z,61.30
2018-03-19T05:02:34.898Z,61.20
2018-03-19T05:07:54.702Z,62.20
2018-03-19T05:10:24.464Z,62.80
2018-03-19T05:12:55.025Z,64.00
2018-03-19T05:15:24.844Z,64.00
2018-03-19T05:17:54.669Z,63.90
2018-03-19T05:20:24.467Z,64.30
2018-03-19T05:22:54.315Z,64.80
2018-03-19T05:25:24.100Z,67.40
2018-03-19T05:27:53.985Z,66.60
2018-03-19T05:30:23.790Z,66.70
2018-03-19T05:32:53.614Z,67.60
2018-03-19T05:35:23.408Z,67.90
2018-03-19T05:37:54.044Z,68.50
2018-03-19T05:40:24.728Z,68.10
2018-03-19T05:42:54.540Z,68.10
2018-03-19T05:45:24.310Z,68.10
2018-03-19T05:47:54.127Z,68.50
2018-03-19T05:50:24.012Z,68.30
2018-03-19T05:52:54.077Z,69.10
2018-03-19T05:55:23.864Z,69.00
2018-03-19T05:57:54.450Z,67.20
2018-03-19T06:00:24.222Z,67.10
2018-03-19T06:02:54.015Z,66.80
2018-03-19T06:05:24.584Z,67.10
2018-03-19T06:07:54.348Z,67.10
2018-03-19T06:10:24.941Z,66.50
2018-03-19T06:12:54.948Z,66.40
2018-03-19T06:15:24.721Z,66.00
2018-03-19T06:17:55.289Z,64.70
2018-03-19T06:20:25.068Z,64.50
2018-03-19T06:22:55.682Z,63.50
2018-03-19T06:25:25.537Z,63.50
2018-03-19T06:27:55.346Z,62.90
2018-03-19T06:30:25.232Z,61.20
2018-03-19T06:32:55.773Z,59.80
2018-03-19T06:35:26.156Z,59.60
2018-03-19T06:38:01.747Z,59.60
2018-03-19T06:40:31.596Z,59.40
2018-03-19T06:43:01.417Z,57.90
2018-03-19T06:45:31.231Z,57.40
2018-03-19T06:48:01.043Z,57.10
2018-03-19T06:50:30.882Z,55.80
2018-03-19T06:53:00.688Z,55.60
2018-03-19T06:55:30.486Z,53.70
2018-03-19T06:58:00.281Z,53.20
2018-03-19T07:00:30.155Z,53.00
2018-03-19T07:03:00.862Z,51.50
2018-03-19T07:05:31.041Z,51.40
2018-03-19T07:08:01.333Z,49.80
2018-03-19T07:10:31.177Z,49.10
2018-03-19T07:13:01.518Z,48.40
2018-03-19T07:15:31.331Z,47.70
2018-03-19T07:18:01.137Z,46.40
2018-03-19T07:20:30.934Z,45.50
2018-03-19T07:23:00.730Z,45.70
2018-03-19T07:25:30.628Z,44.10
2018-03-19T07:28:00.436Z,43.90
2018-03-19T07:30:31.120Z,42.90
2018-03-19T07:33:00.918Z,42.00
2018-03-19T07:35:30.679Z,42.90
2018-03-19T07:38:00.481Z,41.20
2018-03-19T07:40:30.252Z,38.90
2018-03-19T07:43:00.061Z,39.20
2018-03-19T07:45:29.824Z,38.50
2018-03-19T07:47:59.623Z,37.00
2018-03-19T07:50:29.402Z,37.60
2018-03-19T07:52:59.232Z,37.90
2018-03-19T07:55:29.053Z,38.60
2018-03-19T07:57:58.898Z,37.90
2018-03-19T08:00:29.443Z,37.40
2018-03-19T08:02:59.243Z,37.00
2018-03-19T08:05:29.030Z,37.60
2018-03-19T08:07:58.856Z,37.70
2018-03-19T08:10:28.628Z,36.20
2018-03-19T08:12:58.750Z,35.90
2018-03-19T08:15:28.564Z,36.40
2018-03-19T08:17:58.369Z,35.30
2018-03-19T08:20:28.258Z,35.10
2018-03-19T08:22:57.757Z,35.00
2018-03-19T08:25:27.710Z,33.70
2018-03-19T08:27:57.471Z,33.60
2018-03-19T08:30:27.381Z,33.20
2018-03-19T08:32:57.220Z,32.70
2018-03-19T08:35:27.783Z,32.20
2018-03-19T08:37:57.668Z,32.20
2018-03-19T08:40:28.265Z,32.50
2018-03-19T08:42:58.037Z,32.50
2018-03-19T08:45:27.869Z,33.40
2018-03-19T08:47:57.662Z,32.10
2018-03-19T08:50:27.450Z,32.40
2018-03-19T08:52:57.991Z,28.70
2018-03-19T08:55:28.516Z,28.90
2018-03-19T08:57:59.084Z,28.70
2018-03-19T09:00:28.889Z,28.70
2018-03-19T09:02:58.685Z,27.80
2018-03-19T09:05:28.453Z,27.70
2018-03-19T09:07:58.252Z,27.80
2018-03-19T09:10:28.004Z,28.80
2018-03-19T09:12:58.593Z,27.80
2018-03-19T09:15:28.514Z,27.80
2018-03-19T09:17:58.402Z,27.50
2018-03-19T09:20:28.162Z,27.00
2018-03-19T09:22:57.945Z,27.20
2018-03-19T09:25:27.794Z,27.30
2018-03-19T09:27:57.296Z,26.80
2018-03-19T09:30:27.089Z,26.80
2018-03-19T09:32:56.950Z,27.00
2018-03-19T09:35:26.437Z,26.10
2018-03-19T09:37:56.985Z,26.10
2018-03-19T09:40:27.540Z,25.40
2018-03-19T09:42:57.456Z,25.40
2018-03-19T09:45:27.222Z,26.00
2018-03-19T09:47:57.825Z,25.10
2018-03-19T09:50:27.321Z,25.10
2018-03-19T09:52:57.118Z,24.50
2018-03-19T09:55:26.934Z,24.40
2018-03-19T09:57:56.692Z,24.70
2018-03-19T10:00:26.474Z,25.20
2018-03-19T10:02:56.253Z,24.30
2018-03-19T10:05:26.141Z,24.30
2018-03-19T10:07:55.937Z,24.20
2018-03-19T10:10:27.293Z,23.60
2018-03-19T10:12:57.223Z,23.60
2018-03-19T10:15:27.777Z,23.70
2018-03-19T10:17:57.531Z,23.70
2018-03-19T10:20:27.313Z,23.40
2018-03-19T10:22:57.085Z,23.60
2018-03-19T10:25:27.646Z,23.20
2018-03-19T10:27:57.459Z,23.20
2018-03-19T10:30:27.236Z,23.40
2018-03-19T10:32:57.758Z,22.50
2018-03-19T10:35:27.568Z,22.50
2018-03-19T10:37:58.822Z,21.70
2018-03-19T10:40:28.633Z,21.70
2018-03-19T10:42:58.486Z,21.70
2018-03-19T10:45:28.257Z,21.80
2018-03-19T10:47:58.041Z,21.50
2018-03-19T10:50:27.831Z,20.80
2018-03-19T10:52:57.682Z,20.90
2018-03-19T10:55:27.655Z,19.70
2018-03-19T10:57:57.419Z,20.00
2018-03-19T11:00:27.208Z,19.20
2018-03-19T11:03:02.506Z,19.40
2018-03-19T11:05:32.157Z,20.10
2018-03-19T11:08:07.333Z,19.90
2018-03-19T11:10:37.913Z,21.10
2018-03-19T11:13:07.686Z,21.10
2018-03-19T11:15:37.716Z,20.90
2018-03-19T11:18:07.464Z,21.20
2018-03-19T11:20:37.292Z,20.80
2018-03-19T11:23:07.269Z,21.10
2018-03-19T11:25:37.133Z,21.60
2018-03-19T11:28:06.901Z,22.20
2018-03-19T11:30:36.434Z,20.70
2018-03-19T11:33:06.219Z,20.40
2018-03-19T11:35:36.079Z,19.40
2018-03-19T11:38:06.644Z,20.80
2018-03-19T11:40:36.421Z,20.20
2018-03-19T11:43:06.228Z,20.00
2018-03-19T11:45:36.022Z,19.50
2018-03-19T11:48:05.793Z,19.60
2018-03-19T11:50:35.574Z,19.40
2018-03-19T11:53:05.466Z,18.70
2018-03-19T11:55:35.258Z,19.70
2018-03-19T11:58:05.092Z,20.30
2018-03-19T12:00:34.798Z,20.30
2018-03-19T12:03:04.386Z,20.30
2018-03-19T12:05:34.156Z,20.50
2018-03-19T12:08:04.413Z,19.80
2018-03-19T12:10:34.189Z,19.80
2018-03-19T12:13:04.758Z,18.30
2018-03-19T12:15:34.778Z,18.20
2018-03-19T12:18:04.257Z,18.20
2018-03-19T12:20:33.781Z,18.60
2018-03-19T12:23:04.649Z,17.30
2018-03-19T12:25:34.910Z,17.20
2018-03-19T12:28:04.505Z,17.10
2018-03-19T12:30:34.025Z,17.70
2018-03-19T12:33:03.522Z,17.10
2018-03-19T12:35:33.082Z,17.70
2018-03-19T12:38:03.478Z,17.30
2018-03-19T12:40:33.011Z,17.20
2018-03-19T12:43:02.927Z,16.50
2018-03-19T12:45:32.508Z,17.10
2018-03-19T12:48:02.040Z,16.90
2018-03-19T12:50:31.600Z,16.90
2018-03-19T12:53:01.107Z,16.20
2018-03-19T12:55:30.682Z,16.30
2018-03-19T12:58:00.961Z,16.70
2018-03-19T13:00:30.493Z,16.70
2018-03-19T13:03:00.022Z,16.40
2018-03-19T13:05:30.370Z,16.50
2018-03-19T13:08:00.972Z,16.60
2018-03-19T13:10:31.259Z,16.50
2018-03-19T13:13:01.054Z,16.40
2018-03-19T13:15:31.650Z,16.90
2018-03-19T13:18:01.236Z,16.80
2018-03-19T13:20:31.087Z,16.50
2018-03-19T13:23:00.590Z,16.70
2018-03-19T13:25:29.813Z,16.50
2018-03-19T13:27:59.368Z,16.20
2018-03-19T13:30:29.635Z,15.40
2018-03-19T13:33:01.426Z,15.40
2018-03-19T13:35:30.736Z,15.80
2018-03-19T13:38:00.246Z,15.30
2018-03-19T13:40:30.137Z,16.60
2018-03-19T13:42:59.641Z,16.00
2018-03-19T13:45:29.214Z,16.20
2018-03-19T13:47:58.753Z,16.60
2018-03-19T13:50:28.351Z,15.50
2018-03-19T13:52:57.543Z,15.70
2018-03-19T13:55:27.083Z,16.10
2018-03-19T13:57:56.635Z,16.40
2018-03-19T14:00:26.193Z,15.90
2018-03-19T14:02:55.694Z,15.40
2018-03-19T14:05:25.243Z,15.40
2018-03-19T14:07:55.570Z,15.10
2018-03-19T14:10:25.274Z,15.00
2018-03-19T14:12:54.823Z,15.60
2018-03-19T14:15:24.423Z,16.40
2018-03-19T14:17:53.930Z,17.20
2018-03-19T14:20:23.501Z,17.30
2018-03-19T14:22:53.006Z,17.00
2018-03-19T14:25:23.305Z,17.20
2018-03-19T14:27:53.947Z,17.80
2018-03-19T14:30:23.677Z,17.80
2018-03-19T14:32:52.942Z,17.10
2018-03-19T14:35:22.595Z,16.70
2018-03-19T14:37:52.219Z,16.60
2018-03-19T14:40:21.741Z,16.30
2018-03-19T14:42:51.301Z,16.30
2018-03-19T14:45:21.610Z,17.20
2018-03-19T14:47:51.178Z,17.20
2018-03-19T14:50:20.737Z,17.00
2018-03-19T14:52:51.086Z,18.20
2018-03-19T14:55:20.753Z,18.20
2018-03-19T14:57:51.179Z,18.40
2018-03-19T15:00:20.946Z,18.40
2018-03-19T15:02:50.530Z,18.80
2018-03-19T15:05:20.045Z,18.90
2018-03-19T15:07:49.603Z,18.60
2018-03-19T15:10:19.140Z,17.70
2018-03-19T15:12:48.681Z,17.80
2018-03-19T15:15:18.179Z,17.70
2018-03-19T15:17:47.351Z,17.90
2018-03-19T15:20:17.682Z,18.70
2018-03-19T15:22:47.189Z,18.70
2018-03-19T15:25:17.502Z,18.20
2018-03-19T15:27:47.336Z,18.20
2018-03-19T15:30:16.904Z,18.20
2018-03-19T15:32:46.461Z,18.20
2018-03-19T15:35:15.962Z,17.90
2018-03-19T15:37:45.537Z,17.60
2018-03-19T15:40:15.869Z,18.50
2018-03-19T15:42:45.462Z,18.50
2018-03-19T15:45:15.258Z,18.70
2018-03-19T15:47:45.074Z,18.50
2018-03-19T15:50:14.846Z,19.10
2018-03-19T15:52:45.779Z,19.50
2018-03-19T15:55:16.341Z,19.80
2018-03-19T15:57:46.173Z,19.80
2018-03-19T16:00:15.934Z,20.10
2018-03-19T16:02:46.514Z,19.90
2018-03-19T16:05:16.287Z,19.90
2018-03-19T16:07:46.864Z,20.30
2018-03-19T16:10:16.666Z,20.30
2018-03-19T16:12:46.660Z,19.80
2018-03-19T16:15:16.438Z,20.50
2018-03-19T16:17:46.264Z,20.30
2018-03-19T16:20:16.846Z,22.90
2018-03-19T16:22:46.651Z,22.80
2018-03-19T16:25:16.442Z,24.10
2018-03-19T16:27:45.992Z,25.00
2018-03-19T16:30:15.818Z,25.70
2018-03-19T16:32:45.666Z,26.20
2018-03-19T16:35:16.250Z,27.20
2018-03-19T16:37:46.302Z,26.70
2018-03-19T16:40:16.053Z,27.30
2018-03-19T16:42:45.881Z,27.30
2018-03-19T16:45:15.720Z,27.50
2018-03-19T16:47:45.482Z,27.40
2018-03-19T16:50:15.308Z,27.60
2018-03-19T16:52:45.117Z,27.70
2018-03-19T16:55:15.026Z,28.10
2018-03-19T16:57:45.777Z,29.20
2018-03-19T17:00:15.581Z,29.20
2018-03-19T17:02:45.337Z,29.40
2018-03-19T17:05:15.130Z,29.50
2018-03-19T17:07:44.958Z,29.30
2018-03-19T17:10:14.736Z,29.90
2018-03-19T17:12:44.545Z,30.10
2018-03-19T17:15:14.390Z,30.00
2018-03-19T17:17:44.234Z,30.40
2018-03-19T17:20:14.806Z,31.40
2018-03-19T17:22:44.605Z,31.40
2018-03-19T17:25:14.431Z,31.10
2018-03-19T17:27:43.557Z,31.70
2018-03-19T17:30:13.381Z,33.00
2018-03-19T17:32:43.146Z,32.70
2018-03-19T17:35:12.952Z,33.10
2018-03-19T17:37:42.787Z,32.50
2018-03-19T17:40:12.580Z,32.70
2018-03-19T17:42:42.398Z,33.10
2018-03-19T17:45:12.174Z,33.10
2018-03-19T17:47:42.758Z,33.80
2018-03-19T17:50:14.066Z,33.80
2018-03-19T17:52:44.655Z,34.10
2018-03-19T17:55:14.462Z,34.10
2018-03-19T17:57:45.810Z,34.70
2018-03-19T18:00:15.593Z,34.70
2018-03-19T18:02:45.388Z,34.40
2018-03-19T18:05:15.156Z,34.50
2018-03-19T18:07:44.989Z,34.60
2018-03-19T18:10:15.584Z,35.10
2018-03-19T18:12:45.354Z,35.10
2018-03-19T18:15:15.157Z,35.10
2018-03-19T18:17:45.981Z,35.70
2018-03-19T18:20:16.676Z,35.80
2018-03-19T18:22:46.486Z,35.70
2018-03-19T18:25:16.457Z,35.80
2018-03-19T18:27:47.058Z,35.90
2018-03-19T18:30:16.922Z,35.90
2018-03-19T18:32:46.806Z,36.20
2018-03-19T18:35:17.421Z,36.30
2018-03-19T18:37:47.979Z,37.20
2018-03-19T18:40:17.823Z,36.50
2018-03-19T18:42:47.662Z,36.70
2018-03-19T18:45:17.473Z,36.60
2018-03-19T18:47:47.229Z,36.30
2018-03-19T18:50:17.602Z,36.80
2018-03-19T18:52:47.412Z,36.80
2018-03-19T18:55:17.204Z,37.00
2018-03-19T18:57:47.064Z,36.90
2018-03-19T19:00:17.094Z,36.90
2018-03-19T19:02:47.670Z,37.20
2018-03-19T19:05:17.490Z,37.20
2018-03-19T19:07:47.390Z,37.10
2018-03-19T19:10:17.214Z,37.60
2018-03-19T19:12:47.025Z,37.90
2018-03-19T19:15:16.852Z,38.30
2018-03-19T19:17:46.641Z,37.80
2018-03-19T19:20:16.818Z,38.30
2018-03-19T19:22:47.527Z,39.10
2018-03-19T19:25:17.702Z,39.10
2018-03-19T19:27:47.834Z,38.80
2018-03-19T19:30:17.670Z,38.90
2018-03-19T19:32:47.449Z,40.10
2018-03-19T19:35:17.246Z,40.40
2018-03-19T19:37:47.805Z,41.10
2018-03-19T19:40:17.685Z,41.10
2018-03-19T19:42:48.293Z,43.00
2018-03-19T19:45:18.126Z,43.00
2018-03-19T19:47:48.731Z,41.70
2018-03-19T19:50:18.570Z,41.70
2018-03-19T19:52:48.554Z,42.50
2018-03-19T19:55:18.401Z,42.00
2018-03-19T19:57:48.763Z,43.60
2018-03-19T20:00:18.625Z,43.60
2018-03-19T20:02:48.620Z,43.40
2018-03-19T20:05:18.565Z,43.00
2018-03-19T20:07:48.423Z,43.70
2018-03-19T20:10:18.250Z,43.70
2018-03-19T20:12:48.076Z,43.50
2018-03-19T20:15:21.791Z,44.20
2018-03-19T20:17:51.633Z,43.90
2018-03-19T20:20:23.019Z,45.00
2018-03-19T20:22:52.871Z,44.40
2018-03-19T20:25:22.703Z,45.20
2018-03-19T20:27:53.245Z,45.50
2018-03-19T20:30:24.997Z,45.50
2018-03-19T20:32:55.548Z,46.10
2018-03-19T20:35:25.597Z,46.10
2018-03-19T20:37:56.544Z,46.50
2018-03-19T20:40:26.322Z,46.40
2018-03-19T20:42:56.186Z,46.80
2018-03-19T20:45:27.551Z,46.90
2018-03-19T20:47:57.350Z,47.20
2018-03-19T20:50:27.320Z,47.90
2018-03-19T20:52:58.730Z,48.00
2018-03-19T20:55:28.762Z,48.50
2018-03-19T20:57:59.453Z,47.70
2018-03-19T21:00:29.286Z,47.70
2018-03-19T21:02:59.154Z,48.20
2018-03-19T21:05:28.957Z,48.10
2018-03-19T21:07:58.761Z,47.60
2018-03-19T21:10:28.590Z,49.20
2018-03-19T21:12:58.359Z,48.50
2018-03-19T21:15:29.023Z,48.70
2018-03-19T21:17:58.861Z,48.70
2018-03-19T21:20:28.684Z,49.60
2018-03-19T21:22:58.470Z,49.10
2018-03-19T21:25:28.516Z,48.50
2018-03-19T21:27:58.132Z,49.30
2018-03-19T21:30:27.919Z,49.10
2018-03-19T21:32:57.725Z,49.00
2018-03-19T21:35:27.534Z,49.60
2018-03-19T21:37:57.336Z,49.70
2018-03-19T21:40:27.166Z,49.50
2018-03-19T21:42:56.976Z,49.60
2018-03-19T21:45:26.481Z,49.70
2018-03-19T21:47:56.321Z,49.20
2018-03-19T21:50:26.106Z,49.20
2018-03-19T21:52:55.904Z,48.70
2018-03-19T21:55:25.752Z,48.60
2018-03-19T21:57:55.761Z,49.20
2018-03-19T22:00:25.622Z,47.90
2018-03-19T22:02:55.400Z,47.80
2018-03-19T22:05:25.213Z,47.70
2018-03-19T22:07:54.982Z,47.60
2018-03-19T22:10:25.909Z,48.10
2018-03-19T22:12:56.476Z,48.60
2018-03-19T22:15:26.278Z,48.60
2018-03-19T22:17:56.059Z,50.60
2018-03-19T22:20:26.084Z,51.90
2018-03-19T22:22:56.622Z,50.00
2018-03-19T22:25:27.217Z,52.00
2018-03-19T22:27:58.522Z,51.10
2018-03-19T22:30:28.594Z,51.00
2018-03-19T22:32:58.450Z,51.60
2018-03-19T22:35:28.229Z,50.60
2018-03-19T22:37:58.867Z,50.80
2018-03-19T22:40:29.471Z,50.50
2018-03-19T22:42:59.338Z,50.50
2018-03-19T22:45:29.178Z,50.30
2018-03-19T22:47:59.002Z,50.30
2018-03-19T22:50:28.829Z,50.00
2018-03-19T22:52:58.652Z,50.00
2018-03-19T22:55:28.441Z,50.30
2018-03-19T22:57:58.302Z,50.50
2018-03-19T23:00:27.817Z,50.30
2018-03-19T23:02:57.314Z,50.60
2018-03-19T23:05:27.537Z,51.10
2018-03-19T23:07:57.104Z,51.10
2018-03-19T23:10:26.897Z,51.10
2018-03-19T23:12:57.177Z,51.60
2018-03-19T23:15:27.762Z,51.90
2018-03-19T23:17:57.554Z,51.90
2018-03-19T23:20:27.411Z,52.20
2018-03-19T23:22:57.185Z,52.80
2018-03-19T23:25:26.988Z,53.20
2018-03-19T23:27:56.805Z,53.10
2018-03-19T23:30:26.632Z,53.20
2018-03-19T23:32:56.443Z,53.80
2018-03-19T23:35:26.254Z,54.00
2018-03-19T23:37:56.066Z,54.10
2018-03-19T23:40:25.881Z,54.10
2018-03-19T23:42:55.685Z,54.30
2018-03-19T23:45:25.456Z,54.50
2018-03-19T23:47:56.041Z,55.60
2018-03-19T23:50:25.826Z,55.70
2018-03-19T23:52:55.670Z,55.70
2018-03-19T23:55:25.482Z,56.60
2018-03-19T23:57:55.290Z,56.60
